sensor_id;sensor_type;location;lat;lon;timestamp;P1;durP1;ratioP1;P2;durP2;ratioP2
17796;SDS011;55596;53.554;9.916;2024-03-02T00:01:36;27.67;;;18.07;;
17796;SDS011;55596;53.554;9.916;2024-03-02T00:04:06;24.70;;;16.60;;
17796;SDS011;55596;53.554;9.916;2024-03-02T00:06:34;22.53;;;17.03;;
17796;SDS011;55596;53.554;9.916;2024-03-02T00:09:02;22.63;;;16.63;;
17796;SDS011;55596;53.554;9.916;2024-03-02T00:11:29;23.37;;;17.53;;
17796;SDS011;55596;53.554;9.916;2024-03-02T00:13:56;24.13;;;17.43;;
17796;SDS011;55596;53.554;9.916;2024-03-02T00:16:25;27.10;;;17.33;;
17796;SDS011;55596;53.554;9.916;2024-03-02T00:18:56;26.60;;;16.80;;
17796;SDS011;55596;53.554;9.916;2024-03-02T00:21:24;23.27;;;16.67;;
17796;SDS011;55596;53.554;9.916;2024-03-02T00:23:56;23.87;;;16.43;;
17796;SDS011;55596;53.554;9.916;2024-03-02T00:26:23;24.40;;;16.57;;
17796;SDS011;55596;53.554;9.916;2024-03-02T00:28:50;24.87;;;17.53;;
17796;SDS011;55596;53.554;9.916;2024-03-02T00:31:22;24.80;;;17.27;;
17796;SDS011;55596;53.554;9.916;2024-03-02T00:33:51;24.13;;;17.43;;
17796;SDS011;55596;53.554;9.916;2024-03-02T00:36:21;25.07;;;17.83;;
17796;SDS011;55596;53.554;9.916;2024-03-02T00:38:50;26.37;;;17.50;;
17796;SDS011;55596;53.554;9.916;2024-03-02T00:41:19;25.40;;;18.67;;
17796;SDS011;55596;53.554;9.916;2024-03-02T00:43:50;25.20;;;18.20;;
17796;SDS011;55596;53.554;9.916;2024-03-02T00:46:19;28.37;;;18.10;;
17796;SDS011;55596;53.554;9.916;2024-03-02T00:48:52;26.87;;;19.10;;
17796;SDS011;55596;53.554;9.916;2024-03-02T00:51:20;24.40;;;18.57;;
17796;SDS011;55596;53.554;9.916;2024-03-02T00:53:47;31.30;;;20.83;;
17796;SDS011;55596;53.554;9.916;2024-03-02T00:56:15;27.37;;;19.77;;
17796;SDS011;55596;53.554;9.916;2024-03-02T00:58:42;32.90;;;21.07;;
17796;SDS011;55596;53.554;9.916;2024-03-02T01:01:09;29.93;;;20.80;;
17796;SDS011;55596;53.554;9.916;2024-03-02T01:03:37;31.60;;;22.23;;
17796;SDS011;55596;53.554;9.916;2024-03-02T01:06:05;31.57;;;22.47;;
17796;SDS011;55596;53.554;9.916;2024-03-02T01:08:33;34.27;;;23.63;;
17796;SDS011;55596;53.554;9.916;2024-03-02T01:11:00;39.40;;;23.27;;
17796;SDS011;55596;53.554;9.916;2024-03-02T01:13:27;33.60;;;23.90;;
17796;SDS011;55596;53.554;9.916;2024-03-02T01:15:54;34.90;;;24.77;;
17796;SDS011;55596;53.554;9.916;2024-03-02T01:18:21;40.13;;;25.23;;
17796;SDS011;55596;53.554;9.916;2024-03-02T01:20:49;35.97;;;25.23;;
17796;SDS011;55596;53.554;9.916;2024-03-02T01:23:19;36.10;;;24.57;;
17796;SDS011;55596;53.554;9.916;2024-03-02T01:25:46;42.90;;;27.47;;
17796;SDS011;55596;53.554;9.916;2024-03-02T01:28:13;37.57;;;24.73;;
17796;SDS011;55596;53.554;9.916;2024-03-02T01:30:40;41.17;;;26.47;;
17796;SDS011;55596;53.554;9.916;2024-03-02T01:33:07;37.83;;;26.20;;
17796;SDS011;55596;53.554;9.916;2024-03-02T01:35:34;43.37;;;26.93;;
17796;SDS011;55596;53.554;9.916;2024-03-02T01:38:02;41.53;;;27.00;;
17796;SDS011;55596;53.554;9.916;2024-03-02T01:40:32;43.80;;;28.63;;
17796;SDS011;55596;53.554;9.916;2024-03-02T01:42:59;44.23;;;27.43;;
17796;SDS011;55596;53.554;9.916;2024-03-02T01:45:27;42.40;;;27.83;;
17796;SDS011;55596;53.554;9.916;2024-03-02T01:47:54;43.47;;;28.40;;
17796;SDS011;55596;53.554;9.916;2024-03-02T01:50:25;46.27;;;28.80;;
17796;SDS011;55596;53.554;9.916;2024-03-02T01:52:52;46.90;;;29.27;;
17796;SDS011;55596;53.554;9.916;2024-03-02T01:55:20;45.70;;;28.80;;
17796;SDS011;55596;53.554;9.916;2024-03-02T01:57:48;49.43;;;29.87;;
17796;SDS011;55596;53.554;9.916;2024-03-02T02:00:17;47.93;;;29.80;;
17796;SDS011;55596;53.554;9.916;2024-03-02T02:02:44;47.73;;;29.77;;
17796;SDS011;55596;53.554;9.916;2024-03-02T02:05:11;45.90;;;31.30;;
17796;SDS011;55596;53.554;9.916;2024-03-02T02:07:41;56.50;;;31.80;;
17796;SDS011;55596;53.554;9.916;2024-03-02T02:10:09;53.73;;;32.40;;
17796;SDS011;55596;53.554;9.916;2024-03-02T02:12:36;52.30;;;32.20;;
17796;SDS011;55596;53.554;9.916;2024-03-02T02:15:07;51.63;;;32.27;;
17796;SDS011;55596;53.554;9.916;2024-03-02T02:17:48;52.10;;;31.97;;
17796;SDS011;55596;53.554;9.916;2024-03-02T02:20:15;52.30;;;32.57;;
17796;SDS011;55596;53.554;9.916;2024-03-02T02:22:53;51.80;;;31.43;;
17796;SDS011;55596;53.554;9.916;2024-03-02T02:25:20;51.47;;;31.60;;
17796;SDS011;55596;53.554;9.916;2024-03-02T02:27:47;53.73;;;31.53;;
17796;SDS011;55596;53.554;9.916;2024-03-02T02:30:17;51.50;;;31.90;;
17796;SDS011;55596;53.554;9.916;2024-03-02T02:32:45;51.27;;;30.60;;
17796;SDS011;55596;53.554;9.916;2024-03-02T02:35:12;51.93;;;32.00;;
17796;SDS011;55596;53.554;9.916;2024-03-02T02:37:39;57.53;;;31.73;;
17796;SDS011;55596;53.554;9.916;2024-03-02T02:40:08;52.30;;;32.20;;
17796;SDS011;55596;53.554;9.916;2024-03-02T02:42:36;56.83;;;32.57;;
17796;SDS011;55596;53.554;9.916;2024-03-02T02:45:03;52.53;;;30.70;;
17796;SDS011;55596;53.554;9.916;2024-03-02T02:47:30;50.77;;;31.07;;
17796;SDS011;55596;53.554;9.916;2024-03-02T02:50:00;50.10;;;31.27;;
17796;SDS011;55596;53.554;9.916;2024-03-02T02:52:30;53.40;;;31.47;;
17796;SDS011;55596;53.554;9.916;2024-03-02T02:54:58;49.33;;;31.63;;
17796;SDS011;55596;53.554;9.916;2024-03-02T02:57:26;53.50;;;33.90;;
17796;SDS011;55596;53.554;9.916;2024-03-02T02:59:55;51.70;;;32.63;;
17796;SDS011;55596;53.554;9.916;2024-03-02T03:02:22;50.80;;;31.50;;
17796;SDS011;55596;53.554;9.916;2024-03-02T03:04:49;57.27;;;33.33;;
17796;SDS011;55596;53.554;9.916;2024-03-02T03:07:16;49.27;;;31.47;;
17796;SDS011;55596;53.554;9.916;2024-03-02T03:09:43;52.60;;;31.73;;
17796;SDS011;55596;53.554;9.916;2024-03-02T03:12:10;48.43;;;31.33;;
17796;SDS011;55596;53.554;9.916;2024-03-02T03:14:38;50.53;;;31.20;;
17796;SDS011;55596;53.554;9.916;2024-03-02T03:17:07;48.20;;;31.17;;
17796;SDS011;55596;53.554;9.916;2024-03-02T03:19:34;47.90;;;30.10;;
17796;SDS011;55596;53.554;9.916;2024-03-02T03:22:01;50.57;;;31.50;;
17796;SDS011;55596;53.554;9.916;2024-03-02T03:24:28;46.70;;;30.57;;
17796;SDS011;55596;53.554;9.916;2024-03-02T03:26:55;47.93;;;31.57;;
17796;SDS011;55596;53.554;9.916;2024-03-02T03:29:22;52.23;;;31.37;;
17796;SDS011;55596;53.554;9.916;2024-03-02T03:31:51;50.40;;;30.20;;
17796;SDS011;55596;53.554;9.916;2024-03-02T03:34:18;48.00;;;30.70;;
17796;SDS011;55596;53.554;9.916;2024-03-02T03:36:45;49.70;;;30.40;;
17796;SDS011;55596;53.554;9.916;2024-03-02T03:39:12;49.87;;;30.27;;
17796;SDS011;55596;53.554;9.916;2024-03-02T03:41:40;47.73;;;30.90;;
17796;SDS011;55596;53.554;9.916;2024-03-02T03:44:07;43.27;;;29.00;;
17796;SDS011;55596;53.554;9.916;2024-03-02T03:46:34;46.53;;;30.30;;
17796;SDS011;55596;53.554;9.916;2024-03-02T03:49:03;53.33;;;30.80;;
17796;SDS011;55596;53.554;9.916;2024-03-02T03:51:30;47.03;;;30.23;;
17796;SDS011;55596;53.554;9.916;2024-03-02T03:53:57;52.50;;;31.03;;
17796;SDS011;55596;53.554;9.916;2024-03-02T03:56:27;51.00;;;32.27;;
17796;SDS011;55596;53.554;9.916;2024-03-02T03:58:54;49.77;;;30.73;;
17796;SDS011;55596;53.554;9.916;2024-03-02T04:01:21;47.23;;;28.40;;
17796;SDS011;55596;53.554;9.916;2024-03-02T04:03:48;46.03;;;29.97;;
17796;SDS011;55596;53.554;9.916;2024-03-02T04:06:17;45.93;;;29.20;;
17796;SDS011;55596;53.554;9.916;2024-03-02T04:08:44;48.23;;;29.93;;
17796;SDS011;55596;53.554;9.916;2024-03-02T04:11:11;52.17;;;30.43;;
17796;SDS011;55596;53.554;9.916;2024-03-02T04:13:38;56.83;;;30.20;;
17796;SDS011;55596;53.554;9.916;2024-03-02T04:16:05;45.50;;;28.73;;
17796;SDS011;55596;53.554;9.916;2024-03-02T04:18:32;44.70;;;29.10;;
17796;SDS011;55596;53.554;9.916;2024-03-02T04:21:00;49.30;;;29.50;;
17796;SDS011;55596;53.554;9.916;2024-03-02T04:23:28;47.47;;;28.57;;
17796;SDS011;55596;53.554;9.916;2024-03-02T04:25:55;46.43;;;28.83;;
17796;SDS011;55596;53.554;9.916;2024-03-02T04:28:22;47.10;;;30.70;;
17796;SDS011;55596;53.554;9.916;2024-03-02T04:30:49;43.97;;;29.03;;
17796;SDS011;55596;53.554;9.916;2024-03-02T04:33:16;46.50;;;28.87;;
17796;SDS011;55596;53.554;9.916;2024-03-02T04:35:43;44.40;;;28.93;;
17796;SDS011;55596;53.554;9.916;2024-03-02T04:38:11;44.60;;;29.10;;
17796;SDS011;55596;53.554;9.916;2024-03-02T04:40:42;43.47;;;27.80;;
17796;SDS011;55596;53.554;9.916;2024-03-02T04:43:09;45.83;;;29.40;;
17796;SDS011;55596;53.554;9.916;2024-03-02T04:45:40;42.47;;;28.07;;
17796;SDS011;55596;53.554;9.916;2024-03-02T04:48:07;51.07;;;29.40;;
17796;SDS011;55596;53.554;9.916;2024-03-02T04:50:34;44.80;;;27.67;;
17796;SDS011;55596;53.554;9.916;2024-03-02T04:53:01;43.57;;;27.73;;
17796;SDS011;55596;53.554;9.916;2024-03-02T04:55:28;45.73;;;28.57;;
17796;SDS011;55596;53.554;9.916;2024-03-02T04:58:22;46.17;;;29.23;;
17796;SDS011;55596;53.554;9.916;2024-03-02T05:00:49;45.77;;;28.37;;
17796;SDS011;55596;53.554;9.916;2024-03-02T05:03:16;46.60;;;28.73;;
17796;SDS011;55596;53.554;9.916;2024-03-02T05:05:43;41.27;;;27.83;;
17796;SDS011;55596;53.554;9.916;2024-03-02T05:08:11;42.60;;;26.60;;
17796;SDS011;55596;53.554;9.916;2024-03-02T05:10:39;42.33;;;27.97;;
17796;SDS011;55596;53.554;9.916;2024-03-02T05:13:06;40.63;;;26.77;;
17796;SDS011;55596;53.554;9.916;2024-03-02T05:15:33;42.10;;;27.67;;
17796;SDS011;55596;53.554;9.916;2024-03-02T05:18:01;42.10;;;27.13;;
17796;SDS011;55596;53.554;9.916;2024-03-02T05:20:30;41.67;;;28.10;;
17796;SDS011;55596;53.554;9.916;2024-03-02T05:22:57;42.00;;;28.03;;
17796;SDS011;55596;53.554;9.916;2024-03-02T05:25:24;42.37;;;28.10;;
17796;SDS011;55596;53.554;9.916;2024-03-02T05:27:51;44.03;;;28.00;;
17796;SDS011;55596;53.554;9.916;2024-03-02T05:30:18;43.07;;;27.07;;
17796;SDS011;55596;53.554;9.916;2024-03-02T05:32:46;40.33;;;28.23;;
17796;SDS011;55596;53.554;9.916;2024-03-02T05:35:13;42.40;;;27.07;;
17796;SDS011;55596;53.554;9.916;2024-03-02T05:37:40;42.90;;;27.70;;
17796;SDS011;55596;53.554;9.916;2024-03-02T05:40:08;42.93;;;27.33;;
17796;SDS011;55596;53.554;9.916;2024-03-02T05:42:36;42.30;;;27.83;;
17796;SDS011;55596;53.554;9.916;2024-03-02T05:45:03;40.97;;;26.33;;
17796;SDS011;55596;53.554;9.916;2024-03-02T05:47:30;40.53;;;26.43;;
17796;SDS011;55596;53.554;9.916;2024-03-02T05:49:59;40.90;;;27.10;;
17796;SDS011;55596;53.554;9.916;2024-03-02T05:52:26;40.10;;;27.30;;
17796;SDS011;55596;53.554;9.916;2024-03-02T05:54:53;43.23;;;27.20;;
17796;SDS011;55596;53.554;9.916;2024-03-02T05:57:20;42.00;;;27.30;;
17796;SDS011;55596;53.554;9.916;2024-03-02T06:00:01;43.00;;;27.60;;
17796;SDS011;55596;53.554;9.916;2024-03-02T06:02:33;41.20;;;28.23;;
17796;SDS011;55596;53.554;9.916;2024-03-02T06:05:01;44.87;;;28.10;;
17796;SDS011;55596;53.554;9.916;2024-03-02T06:07:29;42.03;;;27.63;;
17796;SDS011;55596;53.554;9.916;2024-03-02T06:09:56;44.10;;;29.30;;
17796;SDS011;55596;53.554;9.916;2024-03-02T06:12:23;43.07;;;28.20;;
17796;SDS011;55596;53.554;9.916;2024-03-02T06:14:50;43.93;;;27.97;;
17796;SDS011;55596;53.554;9.916;2024-03-02T06:17:17;42.20;;;27.30;;
17796;SDS011;55596;53.554;9.916;2024-03-02T06:19:44;44.57;;;28.97;;
17796;SDS011;55596;53.554;9.916;2024-03-02T06:22:14;44.57;;;27.83;;
17796;SDS011;55596;53.554;9.916;2024-03-02T06:24:41;41.40;;;27.93;;
17796;SDS011;55596;53.554;9.916;2024-03-02T06:27:08;39.57;;;26.30;;
17796;SDS011;55596;53.554;9.916;2024-03-02T06:29:35;43.50;;;27.97;;
17796;SDS011;55596;53.554;9.916;2024-03-02T06:32:03;48.90;;;28.33;;
17796;SDS011;55596;53.554;9.916;2024-03-02T06:34:30;44.13;;;28.27;;
17796;SDS011;55596;53.554;9.916;2024-03-02T06:36:57;42.80;;;27.93;;
17796;SDS011;55596;53.554;9.916;2024-03-02T06:39:25;48.20;;;29.27;;
17796;SDS011;55596;53.554;9.916;2024-03-02T06:41:52;41.37;;;27.30;;
17796;SDS011;55596;53.554;9.916;2024-03-02T06:44:19;39.20;;;25.70;;
17796;SDS011;55596;53.554;9.916;2024-03-02T06:46:46;44.20;;;27.77;;
17796;SDS011;55596;53.554;9.916;2024-03-02T06:49:13;45.93;;;27.93;;
17796;SDS011;55596;53.554;9.916;2024-03-02T06:51:43;44.53;;;27.67;;
17796;SDS011;55596;53.554;9.916;2024-03-02T06:54:10;40.60;;;26.90;;
17796;SDS011;55596;53.554;9.916;2024-03-02T06:56:38;38.57;;;25.70;;
17796;SDS011;55596;53.554;9.916;2024-03-02T06:59:05;37.10;;;26.60;;
17796;SDS011;55596;53.554;9.916;2024-03-02T07:01:32;42.03;;;27.30;;
17796;SDS011;55596;53.554;9.916;2024-03-02T07:03:59;37.93;;;24.87;;
17796;SDS011;55596;53.554;9.916;2024-03-02T07:06:26;40.83;;;25.50;;
17796;SDS011;55596;53.554;9.916;2024-03-02T07:08:53;36.43;;;25.43;;
17796;SDS011;55596;53.554;9.916;2024-03-02T07:11:20;36.37;;;24.47;;
17796;SDS011;55596;53.554;9.916;2024-03-02T07:13:49;37.50;;;25.00;;
17796;SDS011;55596;53.554;9.916;2024-03-02T07:16:16;36.47;;;24.90;;
17796;SDS011;55596;53.554;9.916;2024-03-02T07:18:53;35.70;;;24.30;;
17796;SDS011;55596;53.554;9.916;2024-03-02T07:21:21;35.40;;;24.83;;
17796;SDS011;55596;53.554;9.916;2024-03-02T07:23:48;36.63;;;23.87;;
17796;SDS011;55596;53.554;9.916;2024-03-02T07:26:16;34.93;;;24.43;;
17796;SDS011;55596;53.554;9.916;2024-03-02T07:28:44;33.67;;;23.80;;
17796;SDS011;55596;53.554;9.916;2024-03-02T07:31:12;32.50;;;22.63;;
17796;SDS011;55596;53.554;9.916;2024-03-02T07:33:39;33.20;;;22.73;;
17796;SDS011;55596;53.554;9.916;2024-03-02T07:36:06;30.73;;;21.80;;
17796;SDS011;55596;53.554;9.916;2024-03-02T07:38:34;31.57;;;23.20;;
17796;SDS011;55596;53.554;9.916;2024-03-02T07:41:01;36.27;;;23.30;;
17796;SDS011;55596;53.554;9.916;2024-03-02T07:43:29;32.77;;;22.30;;
17796;SDS011;55596;53.554;9.916;2024-03-02T07:45:58;29.90;;;21.87;;
17796;SDS011;55596;53.554;9.916;2024-03-02T07:48:26;29.43;;;22.00;;
17796;SDS011;55596;53.554;9.916;2024-03-02T07:50:53;32.20;;;23.17;;
17796;SDS011;55596;53.554;9.916;2024-03-02T07:53:20;32.30;;;22.97;;
17796;SDS011;55596;53.554;9.916;2024-03-02T07:55:47;31.00;;;21.80;;
17796;SDS011;55596;53.554;9.916;2024-03-02T07:58:14;30.97;;;21.40;;
17796;SDS011;55596;53.554;9.916;2024-03-02T08:00:43;30.60;;;22.40;;
17796;SDS011;55596;53.554;9.916;2024-03-02T08:03:10;29.47;;;21.13;;
17796;SDS011;55596;53.554;9.916;2024-03-02T08:05:38;29.17;;;21.27;;
17796;SDS011;55596;53.554;9.916;2024-03-02T08:08:05;31.50;;;22.10;;
17796;SDS011;55596;53.554;9.916;2024-03-02T08:10:32;28.07;;;20.10;;
17796;SDS011;55596;53.554;9.916;2024-03-02T08:12:59;33.03;;;22.10;;
17796;SDS011;55596;53.554;9.916;2024-03-02T08:15:26;32.10;;;22.67;;
17796;SDS011;55596;53.554;9.916;2024-03-02T08:17:54;29.87;;;21.53;;
17796;SDS011;55596;53.554;9.916;2024-03-02T08:20:21;27.63;;;20.70;;
17796;SDS011;55596;53.554;9.916;2024-03-02T08:22:49;31.90;;;21.43;;
17796;SDS011;55596;53.554;9.916;2024-03-02T08:25:17;28.67;;;20.97;;
17796;SDS011;55596;53.554;9.916;2024-03-02T08:27:44;29.30;;;20.97;;
17796;SDS011;55596;53.554;9.916;2024-03-02T08:30:11;27.87;;;19.93;;
17796;SDS011;55596;53.554;9.916;2024-03-02T08:32:39;28.33;;;20.30;;
17796;SDS011;55596;53.554;9.916;2024-03-02T08:35:06;29.37;;;20.90;;
17796;SDS011;55596;53.554;9.916;2024-03-02T08:37:33;25.23;;;20.37;;
17796;SDS011;55596;53.554;9.916;2024-03-02T08:40:02;31.57;;;20.80;;
17796;SDS011;55596;53.554;9.916;2024-03-02T08:42:32;29.00;;;20.43;;
17796;SDS011;55596;53.554;9.916;2024-03-02T08:44:59;26.80;;;19.40;;
17796;SDS011;55596;53.554;9.916;2024-03-02T08:47:27;25.00;;;19.00;;
17796;SDS011;55596;53.554;9.916;2024-03-02T08:49:54;28.27;;;19.07;;
17796;SDS011;55596;53.554;9.916;2024-03-02T08:52:21;27.50;;;19.93;;
17796;SDS011;55596;53.554;9.916;2024-03-02T08:54:48;24.40;;;18.67;;
17796;SDS011;55596;53.554;9.916;2024-03-02T08:57:16;27.67;;;18.97;;
17796;SDS011;55596;53.554;9.916;2024-03-02T08:59:43;24.90;;;18.67;;
17796;SDS011;55596;53.554;9.916;2024-03-02T09:02:11;24.97;;;18.87;;
17796;SDS011;55596;53.554;9.916;2024-03-02T09:04:38;23.23;;;17.43;;
17796;SDS011;55596;53.554;9.916;2024-03-02T09:07:05;23.00;;;18.03;;
17796;SDS011;55596;53.554;9.916;2024-03-02T09:09:32;23.33;;;17.57;;
17796;SDS011;55596;53.554;9.916;2024-03-02T09:11:59;25.17;;;18.43;;
17796;SDS011;55596;53.554;9.916;2024-03-02T09:14:28;24.70;;;16.83;;
17796;SDS011;55596;53.554;9.916;2024-03-02T09:16:55;23.87;;;17.40;;
17796;SDS011;55596;53.554;9.916;2024-03-02T09:19:22;22.13;;;17.13;;
17796;SDS011;55596;53.554;9.916;2024-03-02T09:21:49;22.13;;;16.70;;
17796;SDS011;55596;53.554;9.916;2024-03-02T09:24:16;20.43;;;16.23;;
17796;SDS011;55596;53.554;9.916;2024-03-02T09:26:43;20.93;;;16.00;;
17796;SDS011;55596;53.554;9.916;2024-03-02T09:29:10;22.27;;;15.83;;
17796;SDS011;55596;53.554;9.916;2024-03-02T09:31:40;20.93;;;15.73;;
17796;SDS011;55596;53.554;9.916;2024-03-02T09:34:07;21.40;;;16.63;;
17796;SDS011;55596;53.554;9.916;2024-03-02T09:36:34;20.67;;;16.67;;
17796;SDS011;55596;53.554;9.916;2024-03-02T09:39:01;21.37;;;16.27;;
17796;SDS011;55596;53.554;9.916;2024-03-02T09:41:29;21.60;;;15.47;;
17796;SDS011;55596;53.554;9.916;2024-03-02T09:43:56;19.50;;;15.53;;
17796;SDS011;55596;53.554;9.916;2024-03-02T09:46:23;19.00;;;14.97;;
17796;SDS011;55596;53.554;9.916;2024-03-02T09:48:52;19.33;;;15.10;;
17796;SDS011;55596;53.554;9.916;2024-03-02T09:51:19;19.73;;;15.17;;
17796;SDS011;55596;53.554;9.916;2024-03-02T09:53:47;18.33;;;14.87;;
17796;SDS011;55596;53.554;9.916;2024-03-02T09:56:14;19.77;;;14.90;;
17796;SDS011;55596;53.554;9.916;2024-03-02T09:58:43;22.77;;;14.83;;
17796;SDS011;55596;53.554;9.916;2024-03-02T10:01:10;20.53;;;14.23;;
17796;SDS011;55596;53.554;9.916;2024-03-02T10:03:37;19.73;;;15.23;;
17796;SDS011;55596;53.554;9.916;2024-03-02T10:06:22;18.53;;;14.40;;
17796;SDS011;55596;53.554;9.916;2024-03-02T10:08:49;20.23;;;15.10;;
17796;SDS011;55596;53.554;9.916;2024-03-02T10:11:26;15.60;;;13.17;;
17796;SDS011;55596;53.554;9.916;2024-03-02T10:14:07;17.27;;;13.57;;
17796;SDS011;55596;53.554;9.916;2024-03-02T10:16:35;21.70;;;14.63;;
17796;SDS011;55596;53.554;9.916;2024-03-02T10:19:15;18.90;;;14.40;;
17796;SDS011;55596;53.554;9.916;2024-03-02T10:21:44;20.93;;;14.77;;
17796;SDS011;55596;53.554;9.916;2024-03-02T10:24:11;19.23;;;13.47;;
17796;SDS011;55596;53.554;9.916;2024-03-02T10:26:38;17.77;;;13.70;;
17796;SDS011;55596;53.554;9.916;2024-03-02T10:29:07;16.33;;;13.10;;
17796;SDS011;55596;53.554;9.916;2024-03-02T10:31:35;14.80;;;12.40;;
17796;SDS011;55596;53.554;9.916;2024-03-02T10:34:03;15.63;;;12.20;;
17796;SDS011;55596;53.554;9.916;2024-03-02T10:36:30;19.20;;;13.20;;
17796;SDS011;55596;53.554;9.916;2024-03-02T10:38:58;15.63;;;11.27;;
17796;SDS011;55596;53.554;9.916;2024-03-02T10:41:26;15.60;;;11.37;;
17796;SDS011;55596;53.554;9.916;2024-03-02T10:43:53;13.77;;;10.63;;
17796;SDS011;55596;53.554;9.916;2024-03-02T10:46:25;15.27;;;10.00;;
17796;SDS011;55596;53.554;9.916;2024-03-02T10:48:55;12.90;;;9.83;;
17796;SDS011;55596;53.554;9.916;2024-03-02T10:51:23;14.90;;;9.90;;
17796;SDS011;55596;53.554;9.916;2024-03-02T10:53:50;10.40;;;8.70;;
17796;SDS011;55596;53.554;9.916;2024-03-02T10:56:21;13.27;;;9.10;;
17796;SDS011;55596;53.554;9.916;2024-03-02T10:58:49;10.63;;;8.53;;
17796;SDS011;55596;53.554;9.916;2024-03-02T11:01:17;11.10;;;8.20;;
17796;SDS011;55596;53.554;9.916;2024-03-02T11:03:45;17.67;;;8.70;;
17796;SDS011;55596;53.554;9.916;2024-03-02T11:06:12;16.50;;;9.30;;
17796;SDS011;55596;53.554;9.916;2024-03-02T11:08:40;10.60;;;7.87;;
17796;SDS011;55596;53.554;9.916;2024-03-02T11:11:15;10.83;;;8.13;;
17796;SDS011;55596;53.554;9.916;2024-03-02T11:13:50;11.53;;;8.00;;
17796;SDS011;55596;53.554;9.916;2024-03-02T11:16:20;10.87;;;7.53;;
17796;SDS011;55596;53.554;9.916;2024-03-02T11:18:48;11.70;;;7.47;;
17796;SDS011;55596;53.554;9.916;2024-03-02T11:21:16;11.33;;;7.77;;
17796;SDS011;55596;53.554;9.916;2024-03-02T11:23:43;13.87;;;7.67;;
17796;SDS011;55596;53.554;9.916;2024-03-02T11:26:16;9.77;;;7.33;;
17796;SDS011;55596;53.554;9.916;2024-03-02T11:28:45;11.40;;;7.60;;
17796;SDS011;55596;53.554;9.916;2024-03-02T11:31:12;8.73;;;7.17;;
17796;SDS011;55596;53.554;9.916;2024-03-02T11:33:39;8.83;;;7.03;;
17796;SDS011;55596;53.554;9.916;2024-03-02T11:36:08;9.47;;;7.23;;
17796;SDS011;55596;53.554;9.916;2024-03-02T11:38:35;9.30;;;6.43;;
17796;SDS011;55596;53.554;9.916;2024-03-02T11:41:05;9.00;;;7.10;;
17796;SDS011;55596;53.554;9.916;2024-03-02T11:43:33;11.20;;;7.43;;
17796;SDS011;55596;53.554;9.916;2024-03-02T11:46:06;8.63;;;6.70;;
17796;SDS011;55596;53.554;9.916;2024-03-02T11:48:34;8.80;;;6.93;;
17796;SDS011;55596;53.554;9.916;2024-03-02T11:51:02;9.93;;;6.47;;
17796;SDS011;55596;53.554;9.916;2024-03-02T11:53:30;10.77;;;6.60;;
17796;SDS011;55596;53.554;9.916;2024-03-02T11:55:58;10.07;;;7.00;;
17796;SDS011;55596;53.554;9.916;2024-03-02T11:58:26;8.40;;;6.70;;
17796;SDS011;55596;53.554;9.916;2024-03-02T12:00:54;8.20;;;6.70;;
17796;SDS011;55596;53.554;9.916;2024-03-02T12:03:23;7.90;;;6.30;;
17796;SDS011;55596;53.554;9.916;2024-03-02T12:05:52;9.23;;;6.43;;
17796;SDS011;55596;53.554;9.916;2024-03-02T12:08:19;10.90;;;7.57;;
17796;SDS011;55596;53.554;9.916;2024-03-02T12:10:55;9.37;;;7.20;;
17796;SDS011;55596;53.554;9.916;2024-03-02T12:13:23;8.97;;;7.73;;
17796;SDS011;55596;53.554;9.916;2024-03-02T12:15:52;10.38;;;7.32;;
17796;SDS011;55596;53.554;9.916;2024-03-02T12:18:20;12.57;;;7.60;;
17796;SDS011;55596;53.554;9.916;2024-03-02T12:20:49;7.45;;;6.32;;
17796;SDS011;55596;53.554;9.916;2024-03-02T12:23:17;10.40;;;7.03;;
17796;SDS011;55596;53.554;9.916;2024-03-02T12:25:45;7.88;;;6.38;;
17796;SDS011;55596;53.554;9.916;2024-03-02T12:28:13;8.23;;;6.15;;
17796;SDS011;55596;53.554;9.916;2024-03-02T12:30:40;7.70;;;6.30;;
17796;SDS011;55596;53.554;9.916;2024-03-02T12:33:07;7.22;;;6.43;;
17796;SDS011;55596;53.554;9.916;2024-03-02T12:35:35;8.33;;;6.53;;
17796;SDS011;55596;53.554;9.916;2024-03-02T12:38:04;8.57;;;6.97;;
17796;SDS011;55596;53.554;9.916;2024-03-02T12:40:31;7.67;;;6.70;;
17796;SDS011;55596;53.554;9.916;2024-03-02T12:42:58;8.63;;;7.27;;
17796;SDS011;55596;53.554;9.916;2024-03-02T12:45:25;8.87;;;7.33;;
17796;SDS011;55596;53.554;9.916;2024-03-02T12:47:53;8.93;;;7.73;;
17796;SDS011;55596;53.554;9.916;2024-03-02T12:50:21;11.30;;;7.17;;
17796;SDS011;55596;53.554;9.916;2024-03-02T12:52:51;8.33;;;6.73;;
17796;SDS011;55596;53.554;9.916;2024-03-02T12:55:20;8.27;;;6.60;;
17796;SDS011;55596;53.554;9.916;2024-03-02T12:57:49;8.00;;;6.13;;
17796;SDS011;55596;53.554;9.916;2024-03-02T13:00:17;7.47;;;6.00;;
17796;SDS011;55596;53.554;9.916;2024-03-02T13:02:45;8.80;;;6.07;;
17796;SDS011;55596;53.554;9.916;2024-03-02T13:05:12;6.63;;;5.47;;
17796;SDS011;55596;53.554;9.916;2024-03-02T13:07:39;6.93;;;5.17;;
17796;SDS011;55596;53.554;9.916;2024-03-02T13:10:07;7.30;;;5.83;;
17796;SDS011;55596;53.554;9.916;2024-03-02T13:12:36;6.80;;;5.27;;
17796;SDS011;55596;53.554;9.916;2024-03-02T13:15:04;7.63;;;5.77;;
17796;SDS011;55596;53.554;9.916;2024-03-02T13:17:31;10.03;;;5.80;;
17796;SDS011;55596;53.554;9.916;2024-03-02T13:20:01;8.80;;;6.40;;
17796;SDS011;55596;53.554;9.916;2024-03-02T13:22:29;11.57;;;6.90;;
17796;SDS011;55596;53.554;9.916;2024-03-02T13:24:56;8.93;;;6.17;;
17796;SDS011;55596;53.554;9.916;2024-03-02T13:27:25;8.07;;;6.60;;
17796;SDS011;55596;53.554;9.916;2024-03-02T13:29:53;8.47;;;6.43;;
17796;SDS011;55596;53.554;9.916;2024-03-02T13:32:21;8.68;;;6.72;;
17796;SDS011;55596;53.554;9.916;2024-03-02T13:34:49;7.95;;;6.38;;
17796;SDS011;55596;53.554;9.916;2024-03-02T13:37:16;9.65;;;6.75;;
17796;SDS011;55596;53.554;9.916;2024-03-02T13:39:43;7.47;;;6.50;;
17796;SDS011;55596;53.554;9.916;2024-03-02T13:42:10;8.30;;;6.38;;
17796;SDS011;55596;53.554;9.916;2024-03-02T13:44:39;8.02;;;6.50;;
17796;SDS011;55596;53.554;9.916;2024-03-02T13:47:08;7.03;;;6.07;;
17796;SDS011;55596;53.554;9.916;2024-03-02T13:49:35;7.22;;;6.20;;
17796;SDS011;55596;53.554;9.916;2024-03-02T13:52:05;8.38;;;5.85;;
17796;SDS011;55596;53.554;9.916;2024-03-02T13:54:39;8.25;;;6.22;;
17796;SDS011;55596;53.554;9.916;2024-03-02T13:57:07;10.02;;;7.18;;
17796;SDS011;55596;53.554;9.916;2024-03-02T13:59:34;9.73;;;6.57;;
17796;SDS011;55596;53.554;9.916;2024-03-02T14:02:02;8.82;;;7.45;;
17796;SDS011;55596;53.554;9.916;2024-03-02T14:04:31;9.38;;;7.85;;
17796;SDS011;55596;53.554;9.916;2024-03-02T14:06:59;10.13;;;7.57;;
17796;SDS011;55596;53.554;9.916;2024-03-02T14:09:28;10.65;;;7.55;;
17796;SDS011;55596;53.554;9.916;2024-03-02T14:11:55;10.23;;;7.13;;
17796;SDS011;55596;53.554;9.916;2024-03-02T14:14:22;8.70;;;6.88;;
17796;SDS011;55596;53.554;9.916;2024-03-02T14:16:50;10.07;;;6.88;;
17796;SDS011;55596;53.554;9.916;2024-03-02T14:19:17;11.10;;;7.43;;
17796;SDS011;55596;53.554;9.916;2024-03-02T14:21:45;8.23;;;7.35;;
17796;SDS011;55596;53.554;9.916;2024-03-02T14:24:13;8.52;;;6.88;;
17796;SDS011;55596;53.554;9.916;2024-03-02T14:26:40;8.10;;;6.70;;
17796;SDS011;55596;53.554;9.916;2024-03-02T14:29:07;11.25;;;7.18;;
17796;SDS011;55596;53.554;9.916;2024-03-02T14:31:34;12.32;;;6.55;;